Time;durP1;ratioP1;P1;durP2;ratioP2;P2;SDS_P1;SDS_P2;PMS_P1;PMS_P2;Temp;Humidity;BMP_temperature;BMP_pressure;BME280_temperature;BME280_humidity;BME280_pressure;Samples;Min_cycle;Max_cycle;Signal;HPM_P1;HPM_P2
2021/10/15 00:01:28;;;;;;;29.35;15.13;;;;;;;2.53;85.89;98426.58;1794419;80;20984;-74
2021/10/15 00:03:55;;;;;;;24.47;14.73;;;;;;;2.49;85.83;98432.22;1763631;81;21047;-74
2021/10/15 00:06:22;;;;;;;26.73;14.58;;;;;;;2.48;86.07;98434.81;1794286;80;21085;-74
2021/10/15 00:08:48;;;;;;;26.27;14.47;;;;;;;2.47;86.33;98429.14;1763261;81;22045;-74
2021/10/15 00:11:15;;;;;;;24.30;14.78;;;;;;;2.43;86.28;98434.78;1795663;79;20990;-75
2021/10/15 00:13:41;;;;;;;26.07;14.05;;;;;;;2.40;87.82;98423.41;1762285;81;21452;-75
2021/10/15 00:16:08;;;;;;;24.47;14.33;;;;;;;2.40;87.17;98415.11;1789299;80;21060;-76
2021/10/15 00:18:35;;;;;;;24.32;13.68;;;;;;;2.40;87.08;98412.95;1762199;81;20979;-75
2021/10/15 00:21:01;;;;;;;24.27;13.68;;;;;;;2.40;86.90;98409.88;1789742;80;21406;-76
2021/10/15 00:23:27;;;;;;;22.22;12.85;;;;;;;2.42;86.95;98405.98;1789824;80;21068;-75
2021/10/15 00:25:54;;;;;;;24.85;13.35;;;;;;;2.44;86.96;98410.78;1789682;80;20984;-74
2021/10/15 00:28:20;;;;;;;20.08;12.75;;;;;;;2.48;86.98;98407.34;1790429;80;21397;-74
2021/10/15 00:30:50;;;;;;;21.30;13.13;;;;;;;2.55;87.54;98409.17;1789229;79;21074;-75
2021/10/15 00:33:18;;;;;;;22.20;12.13;;;;;;;2.60;87.37;98407.89;1780574;79;21069;-74
2021/10/15 00:35:48;;;;;;;22.73;13.30;;;;;;;2.62;87.12;98406.19;1784017;79;21992;-73
2021/10/15 00:38:14;;;;;;;24.07;13.95;;;;;;;2.62;87.30;98403.56;1782178;79;20998;-73
2021/10/15 00:40:41;;;;;;;21.55;13.60;;;;;;;2.60;87.19;98402.23;1780863;79;20987;-73
2021/10/15 00:43:07;;;;;;;24.20;13.13;;;;;;;2.60;87.20;98396.11;1800035;79;21015;-73
2021/10/15 00:45:34;;;;;;;23.62;13.50;;;;;;;2.50;87.02;98403.88;1796244;79;21417;-73
2021/10/15 00:48:00;;;;;;;25.35;14.63;;;;;;;2.41;86.73;98401.17;1775880;78;20996;-74
2021/10/15 00:50:28;;;;;;;24.70;13.72;;;;;;;2.37;86.59;98395.03;1782293;79;20995;-74
2021/10/15 00:52:56;;;;;;;24.43;13.53;;;;;;;2.30;86.23;98400.19;1787279;79;20991;-73
2021/10/15 00:55:25;;;;;;;25.55;14.23;;;;;;;2.26;86.45;98397.09;1789638;79;21411;-74
2021/10/15 00:57:52;;;;;;;26.35;14.55;;;;;;;2.18;86.17;98395.29;1786969;79;21396;-74
2021/10/15 01:00:18;;;;;;;25.02;13.48;;;;;;;2.16;86.03;98395.69;1771946;80;20913;-74
2021/10/15 01:02:45;;;;;;;23.67;14.07;;;;;;;2.09;86.25;98383.42;1788773;79;21004;-74
2021/10/15 01:05:12;;;;;;;24.25;13.98;;;;;;;2.07;86.40;98385.13;1793246;79;21025;-74
2021/10/15 01:07:38;;;;;;;24.75;13.72;;;;;;;2.05;86.88;98394.70;1792410;79;21419;-73
2021/10/15 01:10:06;;;;;;;24.35;12.93;;;;;;;2.01;86.08;98388.98;1753978;81;21185;-74
2021/10/15 01:12:35;;;;;;;21.55;12.63;;;;;;;1.96;86.03;98387.19;1725238;83;21449;-74
2021/10/15 01:15:02;;;;;;;25.88;13.53;;;;;;;1.91;85.81;98390.19;1781724;80;21086;-74
2021/10/15 01:17:29;;;;;;;21.75;12.58;;;;;;;1.86;86.02;98385.34;1775049;80;20991;-74
2021/10/15 01:19:56;;;;;;;23.57;13.22;;;;;;;1.81;85.84;98377.87;1823648;79;21051;-75
2021/10/15 01:22:28;;;;;;;22.60;12.10;;;;;;;1.80;85.94;98380.05;1803941;79;21003;-74
2021/10/15 01:24:57;;;;;;;23.65;12.10;;;;;;;1.77;86.15;98388.73;1791167;80;20987;-75
2021/10/15 01:27:25;;;;;;;23.83;13.45;;;;;;;1.73;85.96;98391.30;1791353;79;20955;-75
2021/10/15 01:29:52;;;;;;;22.20;13.22;;;;;;;1.69;85.68;98388.63;1758058;82;21053;-75
2021/10/15 01:32:20;;;;;;;23.25;12.43;;;;;;;1.69;85.73;98388.63;1753214;82;21004;-75
2021/10/15 01:34:46;;;;;;;21.48;12.07;;;;;;;1.68;85.96;98393.42;1785677;80;21066;-74
2021/10/15 01:37:14;;;;;;;22.42;12.40;;;;;;;1.69;86.07;98389.94;1775021;81;21025;-74
2021/10/15 01:39:41;;;;;;;19.82;11.75;;;;;;;1.75;86.37;98380.42;1753020;82;21502;-75
2021/10/15 01:42:53;;;;;;;22.25;12.43;;;;;;;1.76;86.37;98373.91;1751342;80;20957;-75
2021/10/15 01:44:36;;;;;;;21.07;12.20;;;;;;;1.76;86.48;98370.41;1768166;81;21044;-73
2021/10/15 01:47:03;;;;;;;20.35;11.88;;;;;;;1.79;86.65;98363.47;1772283;81;20984;-75
2021/10/15 01:49:34;;;;;;;18.70;11.30;;;;;;;1.83;86.81;98364.41;1770519;81;21046;-74
2021/10/15 01:52:05;;;;;;;20.08;11.33;;;;;;;1.87;86.86;98354.86;1771727;79;20991;-74
2021/10/15 01:54:32;;;;;;;20.30;11.38;;;;;;;1.95;86.90;98355.83;1772411;81;21070;-74
2021/10/15 01:57:00;;;;;;;19.45;12.03;;;;;;;1.96;86.97;98354.52;1794669;80;20967;-74
2021/10/15 01:59:27;;;;;;;18.75;11.30;;;;;;;2.03;86.99;98351.54;1763425;81;21008;-75
2021/10/15 02:01:54;;;;;;;19.48;11.50;;;;;;;2.07;87.05;98357.67;1794666;80;20957;-73
2021/10/15 02:04:20;;;;;;;20.92;11.95;;;;;;;2.14;87.18;98360.81;1758793;81;21224;-73
2021/10/15 02:06:47;;;;;;;18.52;11.48;;;;;;;2.19;86.97;98362.16;1751301;82;20946;-73
2021/10/15 02:09:13;;;;;;;18.30;11.18;;;;;;;2.26;86.94;98355.25;1772754;81;21415;-73
2021/10/15 02:11:39;;;;;;;22.10;11.95;;;;;;;2.28;86.59;98349.17;1772642;81;20997;-75
2021/10/15 02:14:06;;;;;;;19.48;11.65;;;;;;;2.29;86.82;98341.80;1772272;81;21550;-76
2021/10/15 02:16:35;;;;;;;20.60;12.03;;;;;;;2.30;86.37;98341.34;1766414;81;20959;-77
2021/10/15 02:19:03;;;;;;;20.80;12.40;;;;;;;2.33;86.44;98345.30;1759377;81;21075;-75
2021/10/15 02:21:34;;;;;;;20.88;12.28;;;;;;;2.36;86.50;98344.01;1753300;81;20987;-77
2021/10/15 02:24:07;;;;;;;21.40;11.95;;;;;;;2.41;86.29;98341.00;1753224;82;21507;-76
2021/10/15 02:26:33;;;;;;;19.42;11.22;;;;;;;2.44;86.54;98344.07;1753370;82;21034;-75
2021/10/15 02:28:59;;;;;;;21.35;12.85;;;;;;;2.46;86.31;98359.38;1745040;82;21023;-77
2021/10/15 02:31:25;;;;;;;21.62;13.03;;;;;;;2.50;86.19;98352.86;1760032;81;21043;-76
2021/10/15 02:33:52;;;;;;;22.52;13.38;;;;;;;2.56;86.41;98355.97;1741296;82;21082;-76
2021/10/15 02:36:19;;;;;;;22.90;13.00;;;;;;;2.61;86.32;98352.06;1760552;81;20991;-75
2021/10/15 02:38:53;;;;;;;21.42;11.60;;;;;;;2.63;86.06;98358.20;1751559;80;21069;-76
2021/10/15 02:41:20;;;;;;;20.25;12.47;;;;;;;2.65;86.22;98356.47;1751426;82;21013;-75
2021/10/15 02:43:48;;;;;;;21.40;11.68;;;;;;;2.71;86.32;98355.66;1751181;82;21033;-76
2021/10/15 02:46:20;;;;;;;21.37;12.25;;;;;;;2.74;86.04;98354.37;1753389;82;21025;-76
2021/10/15 02:48:47;;;;;;;22.25;11.78;;;;;;;2.76;86.36;98361.38;1753041;82;21030;-75
2021/10/15 02:51:14;;;;;;;24.07;12.78;;;;;;;2.79;85.92;98356.59;1756351;80;21055;-77
2021/10/15 02:53:43;;;;;;;21.33;12.50;;;;;;;2.78;86.12;98360.05;1759967;81;21023;-76
2021/10/15 02:56:09;;;;;;;21.40;12.98;;;;;;;2.84;85.98;98364.05;1759641;81;20956;-75
2021/10/15 02:58:36;;;;;;;17.40;10.82;;;;;;;2.86;85.87;98354.91;1759817;81;21054;-76
2021/10/15 03:01:02;;;;;;;20.17;11.85;;;;;;;2.87;86.07;98361.89;1759582;81;21019;-76
2021/10/15 03:03:29;;;;;;;19.05;11.60;;;;;;;2.88;86.06;98361.02;1759704;81;21445;-77
2021/10/15 03:06:01;;;;;;;20.75;11.88;;;;;;;2.88;85.99;98351.85;1782864;78;21007;-76
2021/10/15 03:08:27;;;;;;;18.87;11.25;;;;;;;2.89;86.12;98347.94;1763217;81;21406;-77
2021/10/15 03:10:57;;;;;;;24.55;12.82;;;;;;;2.90;85.83;98347.48;1793800;80;21404;-75
2021/10/15 03:13:27;;;;;;;18.98;11.48;;;;;;;2.89;85.94;98349.67;1735831;81;21016;-76
2021/10/15 03:15:53;;;;;;;21.77;12.68;;;;;;;2.86;86.21;98353.59;1794155;80;20971;-75
2021/10/15 03:18:20;;;;;;;17.67;11.15;;;;;;;2.84;86.04;98355.31;1765962;80;20988;-76
2021/10/15 03:20:47;;;;;;;18.75;11.05;;;;;;;2.83;85.68;98358.34;1794192;80;21059;-76
2021/10/15 03:23:13;;;;;;;17.92;10.03;;;;;;;2.78;85.62;98350.89;1763643;81;21000;-77
2021/10/15 03:25:40;;;;;;;16.48;9.90;;;;;;;2.73;85.77;98353.91;1794368;80;21346;-75
2021/10/15 03:28:06;;;;;;;18.12;10.70;;;;;;;2.72;86.17;98354.36;1802178;79;20955;-75
2021/10/15 03:30:34;;;;;;;18.62;10.75;;;;;;;2.71;86.14;98357.84;1817755;78;20940;-76
2021/10/15 03:33:03;;;;;;;18.85;11.70;;;;;;;2.72;86.38;98358.70;1762107;81;20999;-76
2021/10/15 03:35:30;;;;;;;17.62;11.50;;;;;;;2.74;86.48;98351.31;1789963;80;21463;-76
2021/10/15 03:37:56;;;;;;;17.92;11.45;;;;;;;2.77;86.52;98339.98;1789365;80;21475;-76
2021/10/15 03:40:23;;;;;;;17.77;10.88;;;;;;;2.79;86.66;98351.78;1789872;80;21001;-76
2021/10/15 03:42:49;;;;;;;21.17;12.37;;;;;;;2.83;86.94;98353.56;1789482;80;21009;-76
2021/10/15 03:45:16;;;;;;;20.27;11.97;;;;;;;2.85;86.96;98349.20;1789721;80;21439;-76
2021/10/15 03:47:45;;;;;;;20.57;11.85;;;;;;;2.83;86.79;98346.56;1807034;79;21383;-78
2021/10/15 03:50:12;;;;;;;18.92;10.95;;;;;;;2.79;86.81;98345.23;1823436;79;21009;-76
2021/10/15 03:52:38;;;;;;;20.12;11.80;;;;;;;2.75;86.80;98341.27;1823495;78;21435;-75
2021/10/15 03:55:08;;;;;;;17.42;11.03;;;;;;;2.70;86.67;98333.83;1823734;79;21012;-75
2021/10/15 03:57:35;;;;;;;20.88;11.68;;;;;;;2.68;86.66;98339.49;1823800;78;21017;-75
2021/10/15 04:00:10;;;;;;;19.67;12.58;;;;;;;2.60;86.35;98339.85;1823658;79;20993;-75
2021/10/15 04:02:41;;;;;;;20.70;11.53;;;;;;;2.53;86.11;98342.84;1788222;78;20997;-77
2021/10/15 04:05:09;;;;;;;19.10;11.25;;;;;;;2.45;86.11;98345.40;1790222;79;21029;-77
2021/10/15 04:07:35;;;;;;;20.00;11.68;;;;;;;2.41;85.98;98341.00;1787989;80;21085;-77
2021/10/15 04:10:05;;;;;;;20.20;10.95;;;;;;;2.34;85.74;98345.33;1787828;80;21033;-76
2021/10/15 04:12:32;;;;;;;19.10;11.15;;;;;;;2.25;85.93;98346.55;1787458;80;21494;-77
2021/10/15 04:14:59;;;;;;;19.62;11.55;;;;;;;2.19;85.58;98345.16;1787417;80;20967;-75
2021/10/15 04:17:26;;;;;;;20.97;11.83;;;;;;;2.11;85.61;98345.97;1787950;80;21065;-78
2021/10/15 04:19:52;;;;;;;18.62;10.90;;;;;;;2.04;85.43;98351.12;1788227;80;20974;-75
2021/10/15 04:22:19;;;;;;;18.85;11.70;;;;;;;1.96;85.46;98346.67;1784955;79;21421;-75
2021/10/15 04:24:46;;;;;;;21.40;12.13;;;;;;;1.91;85.46;98350.13;1793177;79;20979;-75
2021/10/15 04:27:12;;;;;;;22.45;11.75;;;;;;;1.85;85.66;98348.30;1805594;79;20975;-75
2021/10/15 04:29:39;;;;;;;21.07;11.93;;;;;;;1.79;85.64;98339.95;1805936;79;20987;-75
2021/10/15 04:32:06;;;;;;;23.62;12.85;;;;;;;1.77;85.52;98340.80;1758563;81;21472;-75
2021/10/15 04:34:32;;;;;;;18.75;10.58;;;;;;;1.71;85.51;98346.40;1759445;81;21015;-75
2021/10/15 04:36:58;;;;;;;20.02;11.33;;;;;;;1.67;85.66;98347.67;1787330;80;20993;-75
2021/10/15 04:39:25;;;;;;;23.45;12.20;;;;;;;1.65;85.69;98346.75;1771483;81;21018;-75
2021/10/15 04:41:51;;;;;;;20.55;11.30;;;;;;;1.66;85.56;98335.47;1787621;80;20974;-75
2021/10/15 04:44:18;;;;;;;15.03;9.68;;;;;;;1.65;85.63;98344.14;1787586;80;20935;-75
2021/10/15 04:46:44;;;;;;;21.33;10.25;;;;;;;1.61;85.81;98338.01;1772717;81;21015;-75
2021/10/15 04:49:12;;;;;;;17.23;10.40;;;;;;;1.56;86.20;98339.27;1780435;80;20964;-75
2021/10/15 04:51:39;;;;;;;14.05;9.08;;;;;;;1.54;86.28;98346.64;1789374;80;21012;-76
2021/10/15 04:54:06;;;;;;;15.40;9.63;;;;;;;1.54;86.39;98354.03;1788527;80;21510;-75
2021/10/15 04:56:33;;;;;;;15.70;9.93;;;;;;;1.53;86.69;98357.96;1773024;81;21011;-75
2021/10/15 04:58:59;;;;;;;15.50;10.05;;;;;;;1.54;86.79;98360.56;1789763;80;21037;-76
2021/10/15 05:01:26;;;;;;;15.98;10.58;;;;;;;1.57;87.02;98357.11;1788807;80;21009;-75
2021/10/15 05:03:52;;;;;;;15.03;9.45;;;;;;;1.56;87.12;98357.98;1788618;80;20961;-76
2021/10/15 05:06:19;;;;;;;19.65;9.55;;;;;;;1.55;87.23;98359.73;1791587;79;21031;-75
2021/10/15 05:11:20;;;;;;;19.55;11.20;;;;;;;1.45;86.71;98360.03;1797054;78;20940;-75
2021/10/15 05:13:46;;;;;;;19.35;10.45;;;;;;;1.44;86.72;98363.92;1827965;78;21020;-75
2021/10/15 05:16:13;;;;;;;18.73;11.38;;;;;;;1.41;86.62;98363.90;1825455;78;21011;-75
2021/10/15 05:18:39;;;;;;;19.57;12.40;;;;;;;1.38;86.66;98355.59;1827875;78;20976;-75
2021/10/15 05:21:06;;;;;;;17.87;12.13;;;;;;;1.36;87.49;98355.13;1798984;78;21039;-75
2021/10/15 05:23:32;;;;;;;22.95;11.35;;;;;;;1.36;87.46;98350.77;1794590;80;20988;-75
2021/10/15 05:25:58;;;;;;;22.25;12.33;;;;;;;1.40;87.59;98355.17;1794743;80;20968;-75
2021/10/15 05:28:27;;;;;;;25.90;14.70;;;;;;;1.41;86.88;98346.92;1794967;80;21047;-75
2021/10/15 05:30:54;;;;;;;29.10;14.55;;;;;;;1.41;86.62;98354.31;1793942;80;21410;-75
2021/10/15 05:33:21;;;;;;;27.93;15.53;;;;;;;1.42;86.49;98356.50;1794008;80;21063;-75
2021/10/15 05:35:47;;;;;;;30.77;15.90;;;;;;;1.42;86.36;98353.89;1797124;78;20991;-75
2021/10/15 05:38:14;;;;;;;38.30;18.42;;;;;;;1.43;86.39;98356.53;1795570;80;20968;-74
2021/10/15 05:40:40;;;;;;;40.30;20.02;;;;;;;1.48;86.33;98359.61;1773403;81;21031;-75
2021/10/15 05:43:07;;;;;;;38.53;20.57;;;;;;;1.44;86.23;98356.97;1795762;80;20991;-76
2021/10/15 05:45:33;;;;;;;42.13;21.12;;;;;;;1.48;86.48;98345.23;1772625;81;20989;-75
2021/10/15 05:48:00;;;;;;;49.03;21.73;;;;;;;1.49;86.47;98352.25;1795003;80;20988;-75
2021/10/15 05:50:28;;;;;;;42.70;21.12;;;;;;;1.48;86.46;98353.97;1795613;80;21425;-75
2021/10/15 05:52:55;;;;;;;47.73;22.62;;;;;;;1.53;86.70;98357.96;1795803;80;20988;-76
2021/10/15 06:00:25;;;;;;;47.08;22.45;;;;;;;1.69;86.53;98365.12;1804763;79;20962;-75
2021/10/15 06:02:52;;;;;;;50.58;22.67;;;;;;;1.75;86.28;98360.82;1827442;78;21007;-75
2021/10/15 06:15:55;;;;;;;57.40;25.02;;;;;;;1.95;86.38;98356.69;1756082;80;20143;-75
2021/10/15 06:18:23;;;;;;;57.27;25.30;;;;;;;2.02;86.53;98358.95;1791408;79;21397;-75
2021/10/15 06:20:51;;;;;;;58.42;25.40;;;;;;;2.08;87.16;98354.22;1792229;79;21043;-75
2021/10/15 06:23:20;;;;;;;49.70;23.15;;;;;;;2.18;87.05;98349.95;1764385;81;21448;-75
2021/10/15 06:25:47;;;;;;;47.50;24.15;;;;;;;2.24;86.98;98346.96;1794843;80;21011;-75
2021/10/15 06:28:14;;;;;;;51.58;24.18;;;;;;;2.32;86.98;98347.03;1764416;81;20983;-75
2021/10/15 06:30:42;;;;;;;56.83;23.67;;;;;;;2.36;87.19;98346.20;1797388;79;21435;-75
2021/10/15 06:33:09;;;;;;;48.80;23.42;;;;;;;2.41;87.20;98332.30;1764371;81;21458;-75
2021/10/15 06:35:35;;;;;;;48.00;24.27;;;;;;;2.46;87.67;98337.98;1787452;80;21041;-75
2021/10/15 06:38:06;;;;;;;45.98;23.45;;;;;;;2.52;87.66;98331.94;1763621;81;21007;-75
2021/10/15 06:40:30;;;;;;;48.92;22.15;;;;;;;2.58;87.31;98342.45;1793003;79;20956;-75
2021/10/15 06:42:56;;;;;;;48.17;23.12;;;;;;;2.60;86.94;98342.05;1794773;80;21018;-75
2021/10/15 06:45:23;;;;;;;47.80;22.55;;;;;;;2.60;86.95;98341.16;1782981;80;20984;-75
2021/10/15 06:47:49;;;;;;;46.15;22.32;;;;;;;2.58;86.69;98341.59;1796523;79;21330;-75
2021/10/15 06:50:16;;;;;;;45.03;23.60;;;;;;;2.55;86.68;98339.83;1770745;80;21008;-76
2021/10/15 06:52:46;;;;;;;52.27;24.63;;;;;;;2.56;86.34;98334.14;1765685;80;21011;-76
2021/10/15 06:55:18;;;;;;;47.70;23.60;;;;;;;2.55;86.58;98333.70;1789046;79;20956;-76
2021/10/15 06:57:46;;;;;;;42.53;22.48;;;;;;;2.53;87.09;98338.92;1761859;80;21375;-75
2021/10/15 07:00:15;;;;;;;40.48;21.17;;;;;;;2.54;86.39;98345.05;1807584;79;21352;-76
2021/10/15 07:02:42;;;;;;;39.60;20.10;;;;;;;2.50;86.63;98340.23;1823804;78;21002;-75
2021/10/15 07:05:10;;;;;;;43.25;20.90;;;;;;;2.45;87.10;98331.02;1823415;79;20970;-76
2021/10/15 07:07:37;;;;;;;43.52;22.05;;;;;;;2.48;87.05;98324.51;1822977;78;21045;-78
2021/10/15 07:10:09;;;;;;;38.33;19.23;;;;;;;2.52;86.42;98324.09;1794864;79;20974;-80
2021/10/15 07:12:44;;;;;;;42.58;21.42;;;;;;;2.52;86.33;98326.71;1756794;81;21026;-80
2021/10/15 07:15:15;;;;;;;45.70;23.18;;;;;;;2.54;86.56;98328.04;1790346;80;21023;-79
2021/10/15 07:17:42;;;;;;;57.43;24.20;;;;;;;2.58;86.41;98324.59;1791658;80;20979;-75
2021/10/15 07:20:11;;;;;;;53.55;24.60;;;;;;;2.62;86.45;98331.60;1792140;79;20920;-76
2021/10/15 07:22:37;;;;;;;53.05;23.77;;;;;;;2.62;85.96;98335.08;1791434;80;21003;-76
2021/10/15 07:25:06;;;;;;;52.30;24.43;;;;;;;2.65;86.19;98336.84;1766637;80;21042;-76
2021/10/15 07:27:34;;;;;;;56.28;24.92;;;;;;;2.71;85.89;98341.25;1795170;80;21000;-76
2021/10/15 07:30:04;;;;;;;62.85;27.35;;;;;;;2.72;86.28;98333.84;1823940;79;21027;-76
2021/10/15 07:32:31;;;;;;;70.17;30.02;;;;;;;2.77;86.07;98330.41;1819213;79;20991;-76
2021/10/15 07:34:58;;;;;;;71.77;31.57;;;;;;;2.80;85.94;98329.55;1809206;79;21035;-76
2021/10/15 07:37:25;;;;;;;68.80;29.48;;;;;;;2.83;85.97;98333.48;1797996;79;20991;-76
2021/10/15 07:39:53;;;;;;;65.55;29.77;;;;;;;2.83;85.58;98327.38;1791686;80;21019;-76
2021/10/15 07:42:20;;;;;;;62.80;28.07;;;;;;;2.83;86.18;98336.55;1763916;81;20951;-76
2021/10/15 07:44:47;;;;;;;62.17;27.70;;;;;;;2.87;85.83;98318.69;1791368;79;20992;-77
2021/10/15 07:47:14;;;;;;;57.55;25.08;;;;;;;2.85;85.68;98318.67;1794376;79;21294;-74
2021/10/15 07:49:40;;;;;;;55.58;25.80;;;;;;;2.87;86.03;98327.85;1791237;80;21027;-76
2021/10/15 07:52:08;;;;;;;52.05;25.72;;;;;;;2.90;85.63;98316.96;1791669;80;21444;-77
2021/10/15 07:54:36;;;;;;;53.50;24.37;;;;;;;2.84;86.06;98320.86;1791308;80;21004;-76
2021/10/15 07:57:04;;;;;;;50.88;24.95;;;;;;;2.85;86.10;98316.05;1791393;80;21568;-75
2021/10/15 07:59:31;;;;;;;49.45;24.77;;;;;;;2.92;85.83;98323.52;1811446;79;21040;-82
2021/10/15 08:01:57;;;;;;;44.75;24.10;;;;;;;2.93;85.33;98317.41;1796770;79;21528;-78
2021/10/15 08:04:24;;;;;;;45.67;22.65;;;;;;;2.96;85.65;98315.25;1761476;80;21055;-81
2021/10/15 08:06:51;;;;;;;50.35;24.23;;;;;;;3.00;85.98;98321.80;1755789;81;21055;-77
2021/10/15 08:09:19;;;;;;;61.77;27.90;;;;;;;3.07;86.11;98323.17;1752222;81;21019;-83
2021/10/15 08:11:48;;;;;;;59.15;27.67;;;;;;;3.17;86.33;98326.29;1751574;81;20994;-78
2021/10/15 08:14:15;;;;;;;71.65;31.80;;;;;;;3.23;86.40;98326.31;1753068;81;21006;-78
2021/10/15 08:16:45;;;;;;;68.10;31.97;;;;;;;3.33;86.59;98319.81;1753084;82;21086;-77
2021/10/15 08:19:25;;;;;;;67.78;30.62;;;;;;;3.41;86.77;98323.36;1738530;82;21038;-79
2021/10/15 08:21:50;;;;;;;61.15;28.75;;;;;;;3.46;86.59;98309.84;1724178;81;21081;-78
2021/10/15 08:24:16;;;;;;;63.65;30.95;;;;;;;3.65;86.72;98306.84;1753226;81;21360;-75
2021/10/15 08:26:43;;;;;;;55.75;27.93;;;;;;;3.87;86.92;98304.72;1743605;80;21032;-75
2021/10/15 08:29:09;;;;;;;55.03;29.85;;;;;;;4.05;86.72;98302.56;1751298;82;21021;-75
2021/10/15 08:31:37;;;;;;;52.23;27.40;;;;;;;4.21;86.28;98306.98;1756407;81;21471;-79
2021/10/15 08:34:07;;;;;;;54.20;28.05;;;;;;;4.33;85.75;98310.48;1754550;82;21438;-75
2021/10/15 08:36:31;;;;;;;54.35;27.75;;;;;;;4.42;85.72;98296.05;1754075;81;21051;-76
2021/10/15 08:38:58;;;;;;;46.40;23.55;;;;;;;4.62;85.69;98295.17;1753521;81;21009;-77
2021/10/15 08:41:24;;;;;;;38.05;19.60;;;;;;;4.72;84.43;98286.83;1754182;81;21451;-77
2021/10/15 08:43:54;;;;;;;35.50;18.67;;;;;;;4.80;84.62;98290.33;1753163;82;21030;-76
2021/10/15 08:46:24;;;;;;;34.80;19.65;;;;;;;4.94;84.63;98292.92;1764124;80;21033;-76
2021/10/15 08:48:52;;;;;;;37.00;20.02;;;;;;;5.03;84.10;98288.11;1756234;81;22287;-77
2021/10/15 08:51:24;;;;;;;36.28;21.65;;;;;;;5.15;84.11;98285.89;1751152;80;22083;-77
2021/10/15 08:53:55;;;;;;;36.77;20.37;;;;;;;5.25;83.70;98281.47;1731603;82;21092;-76
2021/10/15 08:56:24;;;;;;;43.87;22.67;;;;;;;5.39;83.63;98274.41;1748691;81;21391;-76
2021/10/15 08:59:02;;;;;;;50.78;25.70;;;;;;;5.51;82.63;98275.22;1752710;82;21037;-76
2021/10/15 09:01:39;;;;;;;47.25;24.23;;;;;;;5.61;82.70;98274.29;1767834;80;21307;-76
2021/10/15 09:04:06;;;;;;;42.70;22.45;;;;;;;5.71;82.39;98271.62;1785067;80;21063;-75
2021/10/15 09:06:40;;;;;;;44.85;23.73;;;;;;;5.81;82.51;98275.52;1785804;80;20985;-76
2021/10/15 09:09:08;;;;;;;46.23;24.05;;;;;;;5.90;81.50;98270.63;1800554;80;21461;-76
2021/10/15 09:11:47;;;;;;;37.00;21.33;;;;;;;6.01;81.91;98268.36;1800408;79;21039;-75
2021/10/15 09:14:25;;;;;;;40.17;22.82;;;;;;;6.08;81.57;98271.44;1800164;79;21449;-76
2021/10/15 09:17:11;;;;;;;40.50;22.82;;;;;;;6.10;81.01;98260.44;1800441;79;20995;-76
2021/10/15 09:19:47;;;;;;;41.85;22.98;;;;;;;6.10;80.80;98258.27;1800293;79;21040;-76
2021/10/15 09:22:22;;;;;;;44.70;22.65;;;;;;;6.18;81.13;98257.75;1800322;79;20949;-77
2021/10/15 09:24:55;;;;;;;48.45;25.72;;;;;;;6.26;80.92;98252.42;1800320;79;21023;-77
2021/10/15 09:27:40;;;;;;;52.48;28.50;;;;;;;6.28;80.70;98246.30;1800178;79;21007;-77
2021/10/15 09:30:22;;;;;;;62.03;29.35;;;;;;;6.37;80.65;98233.48;1800272;79;21450;-77
2021/10/15 09:32:58;;;;;;;62.25;29.37;;;;;;;6.51;80.49;98244.34;1800249;79;20988;-77
2021/10/15 09:35:28;;;;;;;59.83;30.08;;;;;;;6.59;79.64;98237.23;1799817;79;21061;-77
2021/10/15 09:38:01;;;;;;;57.75;31.55;;;;;;;6.67;79.54;98238.47;1800334;79;20964;-77
2021/10/15 09:40:39;;;;;;;56.40;30.12;;;;;;;6.70;78.95;98234.50;1800301;79;21405;-76
2021/10/15 09:43:09;;;;;;;55.90;28.00;;;;;;;6.80;79.31;98229.56;1800215;79;21047;-76
2021/10/15 09:45:44;;;;;;;63.80;31.25;;;;;;;6.90;78.35;98230.34;1784829;80;21055;-76
2021/10/15 09:48:26;;;;;;;60.75;29.80;;;;;;;6.95;78.07;98226.33;1800382;79;21390;-76
2021/10/15 09:51:22;;;;;;;66.80;31.68;;;;;;;7.04;78.60;98227.98;1800373;79;21104;-75
2021/10/15 09:54:17;;;;;;;61.28;31.02;;;;;;;7.16;78.12;98219.94;1800258;80;21073;-76
2021/10/15 09:56:46;;;;;;;;;;;;;;;7.29;77.19;98215.82;1802933;80;20992;-75
2021/10/15 09:59:13;;;;;;;56.13;27.02;;;;;;;7.37;77.59;98210.89;1800309;80;20098;-75
2021/10/15 10:01:41;;;;;;;50.83;24.18;;;;;;;7.46;76.80;98205.05;1762891;81;21011;-76
2021/10/15 10:04:10;;;;;;;43.05;22.70;;;;;;;7.55;76.78;98201.44;1743653;82;20970;-75
2021/10/15 10:06:37;;;;;;;43.83;22.45;;;;;;;7.69;77.04;98192.88;1743750;82;21016;-75
2021/10/15 10:09:06;;;;;;;33.58;19.00;;;;;;;7.88;75.90;98194.78;1756298;81;21138;-76
2021/10/15 10:11:33;;;;;;;34.08;19.05;;;;;;;7.98;75.78;98190.69;1752990;82;21016;-76
2021/10/15 10:13:59;;;;;;;31.50;18.82;;;;;;;8.08;76.02;98184.80;1785537;80;21011;-76
2021/10/15 10:16:30;;;;;;;26.05;16.85;;;;;;;8.16;75.68;98181.59;1756157;82;21034;-76
2021/10/15 10:19:01;;;;;;;28.12;17.52;;;;;;;8.30;74.80;98182.22;1772667;81;21522;-76
2021/10/15 10:21:33;;;;;;;28.57;17.02;;;;;;;8.38;74.92;98178.13;1772459;81;21443;-76
2021/10/15 10:24:17;;;;;;;25.05;16.07;;;;;;;8.48;73.52;98172.68;1769533;81;20958;-76
2021/10/15 10:26:52;;;;;;;27.30;16.62;;;;;;;8.58;74.25;98170.31;1769603;81;21006;-76
2021/10/15 10:29:20;;;;;;;23.73;15.75;;;;;;;8.62;73.29;98166.73;1769499;81;21009;-76
2021/10/15 10:31:47;;;;;;;28.02;17.32;;;;;;;8.66;72.93;98167.53;1769336;81;21094;-76
2021/10/15 10:34:24;;;;;;;24.77;16.70;;;;;;;8.70;73.53;98168.78;1769532;81;21098;-76
2021/10/15 10:37:07;;;;;;;24.85;16.07;;;;;;;8.76;72.82;98165.59;1768644;81;21498;-77
2021/10/15 10:39:35;;;;;;;27.37;16.95;;;;;;;8.88;73.77;98159.20;1769544;81;20989;-77
2021/10/15 10:42:14;;;;;;;26.75;17.60;;;;;;;8.95;73.50;98163.45;1769580;81;21423;-76
2021/10/15 10:44:52;;;;;;;30.62;19.80;;;;;;;9.02;73.75;98148.34;1769470;81;21373;-75
2021/10/15 10:47:22;;;;;;;34.27;21.55;;;;;;;9.01;71.31;98147.45;1769477;81;21053;-76
2021/10/15 10:50:07;;;;;;;39.58;23.32;;;;;;;8.93;71.39;98153.37;1769575;81;21482;-75
2021/10/15 10:52:42;;;;;;;40.05;24.67;;;;;;;8.93;72.04;98147.61;1765702;81;21006;-76
2021/10/15 10:55:31;;;;;;;47.95;26.52;;;;;;;9.07;72.40;98152.64;1769444;81;21005;-77
2021/10/15 10:57:57;;;;;;;42.40;24.87;;;;;;;9.07;72.01;98149.11;1769550;81;21026;-77
2021/10/15 11:00:29;;;;;;;43.48;25.92;;;;;;;9.13;72.34;98144.16;1769420;81;20994;-77
2021/10/15 11:02:59;;;;;;;44.30;24.07;;;;;;;9.22;71.51;98145.28;1739272;81;21053;-76
2021/10/15 11:05:32;;;;;;;39.42;23.70;;;;;;;9.30;71.72;98134.53;1769459;81;21372;-76
2021/10/15 11:08:27;;;;;;;37.58;23.47;;;;;;;9.28;71.38;98131.91;1769717;81;21029;-77
2021/10/15 11:11:19;;;;;;;39.63;24.02;;;;;;;9.34;72.28;98124.30;1769490;81;21049;-77
2021/10/15 11:13:46;;;;;;;38.38;22.55;;;;;;;9.46;72.00;98132.39;1752486;81;21045;-77
2021/10/15 11:16:22;;;;;;;36.85;21.87;;;;;;;9.49;71.88;98131.89;1769504;81;20974;-77
2021/10/15 11:18:49;;;;;;;35.28;21.35;;;;;;;9.51;71.93;98129.22;1768690;81;21057;-77
2021/10/15 11:21:17;;;;;;;37.25;21.42;;;;;;;9.51;71.14;98127.89;1769391;81;21064;-77
2021/10/15 11:23:43;;;;;;;32.48;20.00;;;;;;;9.51;71.57;98119.95;1769487;81;21013;-77
2021/10/15 11:26:10;;;;;;;33.95;20.65;;;;;;;9.54;71.28;98115.89;1769544;81;21029;-78
2021/10/15 11:28:36;;;;;;;33.85;19.98;;;;;;;9.52;71.49;98112.43;1769386;81;21037;-77
2021/10/15 11:31:10;;;;;;;32.00;19.30;;;;;;;9.53;71.79;98105.34;1769591;81;20990;-77
2021/10/15 11:33:38;;;;;;;32.90;19.55;;;;;;;9.61;71.67;98089.72;1769527;81;21072;-77
2021/10/15 11:36:07;;;;;;;33.10;19.17;;;;;;;9.71;71.95;98093.47;1769550;81;20985;-76
2021/10/15 11:38:35;;;;;;;29.00;18.20;;;;;;;9.86;71.33;98086.91;1769488;81;21009;-76
2021/10/15 11:41:09;;;;;;;30.37;19.15;;;;;;;9.96;71.57;98082.27;1769361;81;21382;-76
2021/10/15 11:43:43;;;;;;;27.65;17.90;;;;;;;10.07;71.72;98081.96;1769475;81;21033;-76
2021/10/15 11:46:15;;;;;;;25.68;17.60;;;;;;;10.14;71.43;98070.31;1769485;81;20994;-77
2021/10/15 11:48:45;;;;;;;37.17;19.65;;;;;;;10.19;71.41;98076.80;1769430;81;21470;-76
2021/10/15 11:51:25;;;;;;;30.00;19.25;;;;;;;10.23;71.14;98069.19;1769492;81;21455;-77
2021/10/15 11:54:01;;;;;;;33.73;20.17;;;;;;;10.30;71.40;98070.78;1769475;81;21478;-77